createdAt,value
2022-09-20T00:00:00.209Z,100
2022-09-20T00:05:00.351Z,100
2022-09-20T00:10:00.196Z,100
2022-09-20T00:15:00.209Z,100
2022-09-20T00:20:00.184Z,100
2022-09-20T00:25:00.403Z,100
2022-09-20T00:30:00.178Z,100
2022-09-20T00:35:00.215Z,100
2022-09-20T00:40:00.362Z,100
2022-09-20T00:45:00.241Z,100
2022-09-20T00:50:00.227Z,100
2022-09-20T00:55:00.233Z,100
2022-09-20T01:00:00.258Z,100
2022-09-20T01:05:00.220Z,100
2022-09-20T01:10:00.206Z,100
2022-09-20T01:15:00.214Z,100
2022-09-20T01:20:00.213Z,100
2022-09-20T01:25:00.373Z,100
2022-09-20T01:30:00.179Z,100
2022-09-20T01:35:00.234Z,100
2022-09-20T01:40:00.404Z,100
2022-09-20T01:45:00.208Z,100
2022-09-20T01:50:00.168Z,100
2022-09-20T01:55:00.233Z,100
2022-09-20T02:00:00.212Z,100
2022-09-20T02:05:00.193Z,100
2022-09-20T02:10:00.156Z,100
2022-09-20T02:15:00.383Z,100
2022-09-20T02:20:00.184Z,100
2022-09-20T02:25:00.194Z,100
2022-09-20T02:30:00.220Z,100
2022-09-20T02:35:00.162Z,100
2022-09-20T02:40:00.318Z,100
2022-09-20T02:45:00.211Z,100
2022-09-20T02:50:00.266Z,100
2022-09-20T02:55:00.162Z,100
2022-09-20T03:00:00.212Z,100
2022-09-20T03:05:00.164Z,100
2022-09-20T03:10:00.223Z,100
2022-09-20T03:15:00.242Z,100
2022-09-20T03:20:00.220Z,100
2022-09-20T03:25:00.166Z,100
2022-09-20T03:30:00.203Z,100
2022-09-20T03:35:00.190Z,100
2022-09-20T03:40:00.414Z,100
2022-09-20T03:45:00.222Z,100
2022-09-20T03:50:00.216Z,100
2022-09-20T03:55:00.172Z,100
2022-09-20T04:00:00.216Z,100
2022-09-20T04:05:00.148Z,100
2022-09-20T04:10:00.190Z,100
2022-09-20T04:15:00.196Z,100
2022-09-20T04:20:00.206Z,100
2022-09-20T04:25:00.158Z,100
2022-09-20T04:30:00.226Z,100
2022-09-20T04:35:00.169Z,100
2022-09-20T04:40:00.295Z,100
2022-09-20T04:45:00.205Z,100
2022-09-20T04:50:00.210Z,100
2022-09-20T04:55:00.185Z,100
2022-09-20T05:00:00.238Z,100
2022-09-20T05:05:00.199Z,100
2022-09-20T05:10:00.233Z,100
2022-09-20T05:15:00.174Z,100
2022-09-20T05:20:00.212Z,100
2022-09-20T05:25:00.201Z,100
2022-09-20T05:30:04.356Z,100
2022-09-20T05:35:00.163Z,100
2022-09-20T05:40:00.368Z,100
2022-09-20T05:45:00.162Z,100
2022-09-20T05:50:00.219Z,100
2022-09-20T05:55:00.212Z,100
2022-09-20T06:00:00.206Z,100
2022-09-20T06:05:00.170Z,100
2022-09-20T06:10:00.386Z,100
2022-09-20T06:15:00.210Z,100
2022-09-20T06:20:00.212Z,100
2022-09-20T06:25:00.155Z,100
2022-09-20T06:30:00.185Z,100
2022-09-20T06:35:00.214Z,100
2022-09-20T06:40:00.342Z,100
2022-09-20T06:45:00.164Z,100
2022-09-20T06:50:00.252Z,100
2022-09-20T06:55:00.283Z,100
2022-09-20T07:00:00.234Z,100
2022-09-20T07:05:00.221Z,100
2022-09-20T07:10:00.218Z,100
2022-09-20T07:15:00.189Z,100
2022-09-20T07:20:00.196Z,100
2022-09-20T07:25:00.157Z,100
2022-09-20T07:30:00.245Z,100
2022-09-20T07:40:00.334Z,100
2022-09-20T07:45:00.197Z,100
2022-09-20T08:10:00.218Z,100
2022-09-20T08:15:00.197Z,100
2022-09-20T08:20:00.182Z,100
2022-09-20T08:40:00.475Z,100
2022-09-20T08:45:00.666Z,100
2022-09-20T08:55:00.178Z,100
2022-09-20T09:00:00.239Z,93
2022-09-20T09:05:00.170Z,100
2022-09-20T09:10:00.190Z,100
2022-09-20T09:15:00.198Z,94
2022-09-20T09:20:00.195Z,94
2022-09-20T09:25:00.207Z,93
2022-09-20T09:30:00.205Z,94
2022-09-20T09:35:00.217Z,99
2022-09-20T09:40:00.302Z,95
2022-09-20T09:45:00.356Z,94
2022-09-20T09:50:02.861Z,93
2022-09-20T09:55:02.687Z,94
2022-09-20T10:00:02.359Z,94
2022-09-20T10:05:00.152Z,92
2022-09-20T10:10:00.226Z,92
2022-09-20T10:15:00.202Z,92
2022-09-20T10:20:00.206Z,92
2022-09-20T10:25:00.155Z,97
2022-09-20T10:30:00.212Z,92
2022-09-20T10:35:00.169Z,98
2022-09-20T10:40:00.300Z,97
2022-09-20T10:45:00.189Z,98
2022-09-20T10:50:00.173Z,96
2022-09-20T10:55:00.303Z,91
2022-09-20T11:00:00.184Z,97
2022-09-20T11:05:00.189Z,95
2022-09-20T11:10:00.215Z,98
2022-09-20T11:15:00.357Z,90
2022-09-20T11:20:04.763Z,100
2022-09-20T11:25:00.197Z,100
2022-09-20T11:30:00.162Z,90
2022-09-20T11:35:00.204Z,89
2022-09-20T11:45:00.208Z,100
2022-09-20T11:50:00.182Z,98
2022-09-20T11:55:00.183Z,100
2022-09-20T12:00:00.171Z,100
2022-09-20T12:05:00.200Z,100
2022-09-20T12:10:00.198Z,100
2022-09-20T12:15:00.197Z,86
2022-09-20T12:20:00.202Z,84
2022-09-20T12:25:00.211Z,84
2022-09-20T12:30:00.171Z,99
2022-09-20T12:35:00.168Z,93
2022-09-20T12:40:00.319Z,94
2022-09-20T12:45:00.212Z,95
2022-09-20T12:50:00.163Z,96
2022-09-20T13:00:00.178Z,94
2022-09-20T13:05:00.187Z,86
2022-09-20T13:10:00.189Z,85
2022-09-20T13:15:00.177Z,82
2022-09-20T13:20:00.192Z,81
2022-09-20T13:25:00.208Z,82
2022-09-20T13:30:00.187Z,82
2022-09-20T13:35:00.199Z,82
2022-09-20T13:40:00.318Z,82
2022-09-20T13:45:00.209Z,84
2022-09-20T13:50:00.185Z,85
2022-09-20T13:55:00.213Z,85
2022-09-20T14:00:00.193Z,84
2022-09-20T14:05:00.202Z,84
2022-09-20T14:10:00.401Z,83
2022-09-20T14:15:00.163Z,82
2022-09-20T14:20:00.191Z,82
2022-09-20T14:25:00.205Z,81
2022-09-20T14:30:00.177Z,81
2022-09-20T14:35:00.204Z,82
2022-09-20T14:40:00.309Z,82
2022-09-20T14:45:00.190Z,81
2022-09-20T14:50:00.277Z,82
2022-09-20T14:55:00.191Z,81
2022-09-20T15:00:00.281Z,88
2022-09-20T15:05:00.209Z,95
2022-09-20T15:10:00.197Z,96
2022-09-20T15:15:00.182Z,96
2022-09-20T15:20:00.186Z,96
2022-09-20T15:25:00.193Z,96
2022-09-20T15:30:00.214Z,88
2022-09-20T15:35:00.167Z,84
2022-09-20T15:40:00.283Z,90
2022-09-20T15:45:00.187Z,94
2022-09-20T15:50:00.209Z,94
2022-09-20T15:55:00.145Z,85
2022-09-20T16:00:00.376Z,86
2022-09-20T16:05:00.160Z,86
2022-09-20T16:10:00.228Z,86
2022-09-20T16:15:00.228Z,86
2022-09-20T16:20:00.213Z,85
2022-09-20T16:25:00.149Z,85
2022-09-20T16:30:00.338Z,85
2022-09-20T16:35:00.157Z,86
2022-09-20T16:40:00.283Z,86
2022-09-20T16:45:00.191Z,87
2022-09-20T16:50:00.230Z,88
2022-09-20T16:55:00.157Z,100
2022-09-20T17:00:00.350Z,87
2022-09-20T17:05:00.322Z,91
2022-09-20T17:10:00.195Z,88
2022-09-20T17:15:00.176Z,88
2022-09-20T17:20:00.220Z,89
2022-09-20T17:25:00.162Z,90
2022-09-20T17:30:00.236Z,91
2022-09-20T17:35:00.192Z,92
2022-09-20T17:40:00.279Z,93
2022-09-20T17:45:00.159Z,93
2022-09-20T17:50:00.230Z,93
2022-09-20T17:55:00.216Z,94
2022-09-20T18:00:00.221Z,95
2022-09-20T18:05:00.153Z,95
2022-09-20T18:10:00.224Z,95
2022-09-20T18:15:00.153Z,95
2022-09-20T18:20:00.185Z,95
2022-09-20T18:25:00.181Z,95
2022-09-20T18:30:00.189Z,95
2022-09-20T18:35:00.222Z,96
2022-09-20T18:40:00.298Z,96
2022-09-20T18:45:00.199Z,96
2022-09-20T18:50:00.192Z,96
2022-09-20T18:55:00.180Z,97
2022-09-20T19:00:03.795Z,97
2022-09-20T19:05:00.222Z,97
2022-09-20T19:10:00.178Z,98
2022-09-20T19:15:00.206Z,98
2022-09-20T19:20:00.213Z,98
2022-09-20T19:25:00.191Z,98
2022-09-20T19:30:00.179Z,99
2022-09-20T19:35:00.197Z,100
2022-09-20T19:40:00.249Z,100
2022-09-20T19:45:00.205Z,100
2022-09-20T19:50:00.199Z,100
2022-09-20T19:55:00.216Z,100
2022-09-20T20:00:00.161Z,100
2022-09-20T20:05:00.186Z,100
2022-09-20T20:10:00.166Z,100
2022-09-20T20:15:00.200Z,100
2022-09-20T20:20:00.194Z,100
2022-09-20T20:25:00.192Z,100
2022-09-20T20:30:00.167Z,100
2022-09-20T20:35:00.373Z,100
2022-09-20T20:40:00.296Z,100
2022-09-20T20:45:00.190Z,100
2022-09-20T20:50:00.193Z,100
2022-09-20T20:55:00.204Z,100
2022-09-20T21:00:00.159Z,100
2022-09-20T21:05:00.224Z,100
2022-09-20T21:10:00.181Z,100
2022-09-20T21:15:00.186Z,100
2022-09-20T21:20:00.213Z,100
2022-09-20T21:25:00.194Z,100
2022-09-20T21:30:00.197Z,100
2022-09-20T21:35:00.177Z,100
2022-09-20T21:40:00.288Z,100
2022-09-20T21:45:00.195Z,100
2022-09-20T21:50:00.215Z,100
2022-09-20T21:55:00.193Z,100
2022-09-20T22:00:00.180Z,100
2022-09-20T22:05:00.184Z,100
2022-09-20T22:10:00.184Z,100
2022-09-20T22:15:00.203Z,100
2022-09-20T22:20:00.155Z,100
2022-09-20T22:25:00.204Z,100
2022-09-20T22:30:04.130Z,100
2022-09-20T22:35:00.202Z,100
2022-09-20T22:40:00.293Z,100
2022-09-20T22:45:00.186Z,100
2022-09-20T22:50:00.182Z,100
2022-09-20T22:55:00.199Z,100
2022-09-20T23:00:00.159Z,100
2022-09-20T23:05:00.216Z,100
2022-09-20T23:10:00.201Z,100
2022-09-20T23:15:00.211Z,100
2022-09-20T23:20:00.160Z,100
2022-09-20T23:25:00.203Z,100
2022-09-20T23:30:00.178Z,100
2022-09-20T23:35:00.193Z,100
2022-09-20T23:40:00.317Z,100
2022-09-20T23:45:00.208Z,100
2022-09-20T23:50:00.174Z,100
2022-09-20T23:55:00.207Z,100
